createdAt,value
2019-01-19T00:01:22.717Z,59.30
2019-01-19T00:04:39.073Z,68.87
2019-01-19T00:07:47.829Z,69.65
2019-01-19T00:11:01.426Z,57.93
2019-01-19T00:13:54.146Z,61.55
2019-01-19T00:17:00.905Z,62.70
2019-01-19T00:20:13.027Z,61.05
2019-01-19T00:23:21.492Z,62.53
2019-01-19T00:26:18.436Z,60.78
2019-01-19T00:29:22.161Z,60.20
2019-01-19T00:32:24.784Z,60.40
2019-01-19T00:35:18.216Z,61.73
2019-01-19T00:38:02.256Z,53.83
2019-01-19T00:41:27.650Z,58.85
2019-01-19T00:44:30.149Z,63.38
2019-01-19T00:47:43.503Z,62.27
2019-01-19T00:50:36.916Z,57.73
2019-01-19T00:53:38.300Z,56.85
2019-01-19T00:56:48.112Z,60.43
2019-01-19T00:59:30.446Z,59.95
2019-01-19T01:05:14.770Z,57.90
2019-01-19T01:08:11.538Z,57.50
2019-01-19T01:11:11.307Z,55.73
2019-01-19T01:14:30.581Z,56.50
2019-01-19T01:17:27.897Z,55.65
2019-01-19T01:20:26.771Z,57.20
2019-01-19T01:23:05.328Z,49.75
2019-01-19T01:26:30.799Z,53.00
2019-01-19T01:29:24.610Z,51.28
2019-01-19T01:32:20.534Z,49.53
2019-01-19T01:35:33.087Z,49.40
2019-01-19T01:38:21.277Z,53.30
2019-01-19T01:41:39.708Z,53.48
2019-01-19T01:44:31.268Z,48.85
2019-01-19T01:47:36.488Z,53.53
2019-01-19T01:50:20.463Z,52.60
2019-01-19T01:53:22.551Z,53.13
2019-01-19T01:55:56.117Z,58.43
2019-01-19T01:59:04.416Z,57.53
2019-01-19T02:01:59.079Z,55.30
2019-01-19T02:05:05.362Z,56.42
2019-01-19T02:08:30.428Z,55.25
2019-01-19T02:11:31.571Z,53.23
2019-01-19T02:14:47.869Z,51.77
2019-01-19T02:17:39.987Z,51.08
2019-01-19T02:20:37.774Z,57.35
2019-01-19T02:23:45.066Z,63.87
2019-01-19T02:26:47.270Z,51.83
2019-01-19T02:29:49.075Z,53.30
2019-01-19T02:33:11.534Z,61.50
2019-01-19T02:36:32.868Z,59.70
2019-01-19T02:39:21.849Z,58.42
2019-01-19T02:42:17.178Z,56.13
2019-01-19T02:45:04.159Z,55.50
2019-01-19T02:48:03.066Z,57.17
2019-01-19T02:51:19.168Z,57.25
2019-01-19T02:54:23.316Z,59.03
2019-01-19T02:57:30.779Z,53.65
2019-01-19T03:00:33.763Z,53.28
2019-01-19T03:03:35.345Z,54.38
2019-01-19T03:06:54.526Z,52.00
2019-01-19T03:10:06.221Z,55.80
2019-01-19T03:13:01.224Z,48.35
2019-01-19T03:16:01.613Z,47.75
2019-01-19T03:18:51.594Z,45.35
2019-01-19T03:22:01.985Z,41.55
2019-01-19T03:25:13.977Z,47.50
2019-01-19T03:28:09.907Z,50.78
2019-01-19T03:31:19.305Z,47.67
2019-01-19T03:34:26.857Z,49.98
2019-01-19T03:37:19.670Z,43.45
2019-01-19T03:40:23.421Z,44.75
2019-01-19T03:43:17.487Z,42.20
2019-01-19T03:46:17.654Z,42.93
2019-01-19T03:49:30.508Z,43.77
2019-01-19T03:52:27.254Z,43.25
2019-01-19T03:55:26.441Z,39.98
2019-01-19T03:58:39.952Z,42.48
2019-01-19T04:01:30.675Z,40.63
2019-01-19T04:05:02.115Z,40.03
2019-01-19T04:07:54.899Z,43.17
2019-01-19T04:10:46.833Z,43.33
2019-01-19T04:13:52.748Z,39.27
2019-01-19T04:17:02.925Z,41.60
2019-01-19T04:20:08.610Z,38.33
2019-01-19T04:23:00.346Z,44.40
2019-01-19T04:25:45.963Z,41.10
2019-01-19T04:28:17.619Z,45.95
2019-01-19T04:30:46.707Z,52.40
2019-01-19T04:33:15.812Z,41.48
2019-01-19T04:35:44.894Z,42.23
2019-01-19T04:38:13.977Z,43.52
2019-01-19T04:40:43.054Z,42.03
2019-01-19T04:43:12.132Z,49.75
2019-01-19T04:45:41.202Z,71.75
2019-01-19T04:48:10.274Z,74.53
2019-01-19T04:50:39.325Z,65.50
2019-01-19T04:53:08.594Z,58.00
2019-01-19T04:55:37.646Z,59.93
2019-01-19T04:58:06.900Z,53.92
2019-01-19T05:00:36.038Z,54.40
2019-01-19T05:03:05.459Z,50.25
2019-01-19T05:05:34.619Z,49.73
2019-01-19T05:08:03.726Z,42.93
2019-01-19T05:10:32.859Z,47.25
2019-01-19T05:13:02.020Z,44.65
2019-01-19T05:15:31.082Z,43.95
2019-01-19T05:18:00.554Z,39.80
2019-01-19T05:20:29.602Z,41.83
2019-01-19T05:22:58.713Z,42.83
2019-01-19T05:25:27.783Z,43.83
2019-01-19T05:27:56.948Z,45.05
2019-01-19T05:30:26.071Z,42.80
2019-01-19T05:32:55.136Z,45.00
2019-01-19T05:35:24.260Z,41.45
2019-01-19T05:37:53.353Z,40.50
2019-01-19T05:40:22.498Z,41.27
2019-01-19T05:42:51.585Z,40.60
2019-01-19T05:45:20.686Z,44.03
2019-01-19T05:47:49.739Z,44.13
2019-01-19T05:50:23.156Z,39.37
2019-01-19T05:52:52.215Z,45.75
2019-01-19T05:55:21.325Z,44.45
2019-01-19T05:57:50.389Z,41.40
2019-01-19T06:00:23.148Z,40.43
2019-01-19T06:05:20.437Z,42.27
2019-01-19T06:07:49.489Z,43.90
2019-01-19T06:10:18.688Z,41.23
2019-01-19T06:12:47.751Z,42.25
2019-01-19T06:15:17.033Z,43.23
2019-01-19T06:17:46.112Z,38.85
2019-01-19T06:20:15.916Z,46.27
2019-01-19T06:22:44.999Z,42.73
2019-01-19T06:25:15.089Z,43.53
2019-01-19T06:27:44.171Z,44.18
2019-01-19T06:30:19.547Z,42.00
2019-01-19T06:32:48.640Z,45.00
2019-01-19T06:35:18.845Z,45.10
2019-01-19T06:37:48.079Z,40.58
2019-01-19T06:40:18.659Z,47.20
2019-01-19T06:42:47.794Z,42.73
2019-01-19T06:45:22.518Z,42.63
2019-01-19T06:47:51.588Z,46.13
2019-01-19T06:50:20.769Z,42.07
2019-01-19T06:52:49.965Z,43.28
2019-01-19T06:55:22.084Z,47.73
2019-01-19T06:57:51.227Z,48.78
2019-01-19T07:00:20.430Z,50.65
2019-01-19T07:02:49.657Z,51.70
2019-01-19T07:05:18.755Z,48.27
2019-01-19T07:07:47.871Z,46.70
2019-01-19T07:10:19.751Z,56.33
2019-01-19T07:12:48.898Z,48.25
2019-01-19T07:15:18.106Z,51.00
2019-01-19T07:17:47.242Z,44.30
2019-01-19T07:20:21.948Z,43.53
2019-01-19T07:22:51.114Z,49.85
2019-01-19T07:25:20.216Z,45.23
2019-01-19T07:27:49.317Z,42.88
2019-01-19T07:30:18.400Z,45.77
2019-01-19T07:32:47.613Z,44.27
2019-01-19T07:35:35.173Z,42.67
2019-01-19T07:38:04.364Z,43.30
2019-01-19T07:40:33.492Z,36.45
2019-01-19T07:43:07.589Z,36.15
2019-01-19T07:45:36.792Z,41.18
2019-01-19T07:48:06.954Z,41.83
2019-01-19T07:50:37.842Z,41.10
2019-01-19T07:53:07.223Z,40.58
2019-01-19T07:55:36.436Z,38.98
2019-01-19T07:58:05.547Z,33.38
2019-01-19T08:00:34.696Z,33.40
2019-01-19T08:03:03.885Z,29.87
2019-01-19T08:05:33.001Z,31.55
2019-01-19T08:08:02.230Z,34.92
2019-01-19T08:10:55.175Z,34.33
2019-01-19T08:13:39.562Z,27.20
2019-01-19T08:16:00.959Z,34.70
2019-01-19T08:18:30.120Z,27.42
2019-01-19T08:21:02.108Z,24.85
2019-01-19T08:23:31.288Z,26.50
2019-01-19T08:26:00.485Z,23.87
2019-01-19T08:28:38.144Z,23.42
2019-01-19T08:31:13.780Z,22.02
2019-01-19T08:33:43.011Z,21.45
2019-01-19T08:36:14.102Z,21.75
2019-01-19T08:38:43.269Z,25.57
2019-01-19T08:41:12.511Z,24.90
2019-01-19T08:43:56.300Z,27.00
2019-01-19T08:46:32.431Z,22.93
2019-01-19T08:49:01.574Z,23.67
2019-01-19T08:51:31.054Z,23.47
2019-01-19T08:54:00.106Z,20.95
2019-01-19T08:56:29.308Z,21.68
2019-01-19T08:58:59.306Z,22.00
2019-01-19T09:01:28.410Z,22.80
2019-01-19T09:03:57.605Z,21.35
2019-01-19T09:06:26.909Z,20.85
2019-01-19T09:08:56.130Z,21.55
2019-01-19T09:11:25.329Z,21.10
2019-01-19T09:13:56.034Z,19.98
2019-01-19T09:16:25.200Z,19.27
2019-01-19T09:18:54.562Z,23.35
2019-01-19T09:21:23.751Z,22.30
2019-01-19T09:24:03.712Z,23.90
2019-01-19T09:26:34.821Z,24.70
2019-01-19T09:29:04.042Z,24.35
2019-01-19T09:31:36.028Z,25.40
2019-01-19T09:34:05.439Z,18.52
2019-01-19T09:36:36.202Z,22.52
2019-01-19T09:39:09.532Z,20.97
2019-01-19T09:41:39.897Z,16.40
2019-01-19T09:44:09.094Z,19.05
2019-01-19T09:46:39.700Z,15.75
2019-01-19T09:49:24.992Z,18.40
2019-01-19T09:51:51.638Z,17.65
2019-01-19T09:54:22.069Z,16.93
2019-01-19T09:56:51.350Z,15.45
2019-01-19T09:59:21.987Z,18.30
2019-01-19T10:01:51.214Z,39.65
2019-01-19T10:04:22.331Z,22.25
2019-01-19T10:06:55.783Z,18.00
2019-01-19T10:09:26.586Z,17.02
2019-01-19T10:12:00.570Z,18.37
2019-01-19T10:14:26.887Z,15.08
2019-01-19T10:16:56.187Z,16.73
2019-01-19T10:19:25.340Z,15.35
2019-01-19T10:21:54.452Z,15.45
2019-01-19T10:24:23.569Z,14.87
2019-01-19T10:26:52.672Z,17.12
2019-01-19T10:29:22.202Z,15.72
2019-01-19T10:31:51.366Z,14.95
2019-01-19T10:34:20.470Z,17.60
2019-01-19T10:36:49.618Z,17.90
2019-01-19T10:39:18.714Z,20.20
2019-01-19T10:41:47.868Z,20.57
2019-01-19T10:44:17.125Z,19.73
2019-01-19T10:46:46.257Z,18.92
2019-01-19T10:49:15.442Z,22.22
2019-01-19T10:51:44.633Z,19.73
2019-01-19T10:54:13.748Z,19.60
2019-01-19T10:56:42.878Z,34.10
2019-01-19T10:59:12.007Z,22.20
2019-01-19T11:01:41.134Z,18.82
2019-01-19T11:04:11.892Z,18.52
2019-01-19T11:06:40.982Z,18.50
2019-01-19T11:09:10.055Z,18.57
2019-01-19T11:11:39.284Z,17.87
2019-01-19T11:14:08.347Z,15.68
2019-01-19T11:16:37.642Z,17.00
2019-01-19T11:19:06.963Z,15.63
2019-01-19T11:21:36.098Z,15.88
2019-01-19T11:24:05.228Z,15.98
2019-01-19T11:26:34.355Z,17.37
2019-01-19T11:29:03.502Z,14.80
2019-01-19T11:31:32.632Z,17.98
2019-01-19T11:34:02.935Z,14.53
2019-01-19T11:36:32.207Z,15.65
2019-01-19T11:39:01.321Z,15.53
2019-01-19T11:41:30.433Z,18.65
2019-01-19T11:43:59.559Z,14.30
2019-01-19T11:46:28.647Z,14.05
2019-01-19T11:48:57.782Z,17.10
2019-01-19T11:51:26.896Z,18.12
2019-01-19T11:53:56.037Z,14.65
2019-01-19T11:56:25.129Z,11.75
2019-01-19T11:58:54.307Z,13.08
2019-01-19T12:01:23.433Z,8.03
2019-01-19T12:03:52.594Z,7.15
2019-01-19T12:06:21.850Z,6.58
2019-01-19T12:08:50.980Z,6.92
2019-01-19T12:11:20.071Z,5.72
2019-01-19T12:13:49.231Z,6.20
2019-01-19T12:16:18.460Z,4.62
2019-01-19T12:18:47.561Z,6.12
2019-01-19T12:21:16.696Z,5.70
2019-01-19T12:23:45.844Z,7.42
2019-01-19T12:26:14.956Z,7.75
2019-01-19T12:28:44.045Z,6.85
2019-01-19T12:31:13.225Z,9.28
2019-01-19T12:33:42.437Z,9.40
2019-01-19T12:36:11.618Z,7.72
2019-01-19T12:38:40.812Z,5.55
2019-01-19T12:41:09.921Z,5.87
2019-01-19T12:43:39.061Z,7.22
2019-01-19T12:46:10.262Z,6.20
2019-01-19T12:48:39.456Z,8.60
2019-01-19T12:51:11.952Z,4.70
2019-01-19T12:53:41.070Z,6.22
2019-01-19T12:56:10.194Z,5.17
2019-01-19T12:58:39.408Z,4.08
2019-01-19T13:01:08.533Z,4.72
2019-01-19T13:03:38.029Z,5.22
2019-01-19T13:06:24.818Z,6.95
2019-01-19T13:08:53.978Z,5.62
2019-01-19T13:11:55.687Z,6.05
2019-01-19T13:14:25.054Z,3.60
2019-01-19T13:17:23.106Z,8.60
2019-01-19T13:20:12.490Z,9.45
2019-01-19T13:23:16.218Z,12.82
2019-01-19T13:26:29.290Z,7.47
2019-01-19T13:29:43.076Z,6.25
2019-01-19T13:32:41.339Z,4.47
2019-01-19T13:35:57.562Z,8.28
2019-01-19T13:39:10.160Z,6.78
2019-01-19T13:42:09.819Z,4.35
2019-01-19T13:45:11.654Z,5.17
2019-01-19T13:48:23.732Z,5.55
2019-01-19T13:51:28.905Z,6.33
2019-01-19T13:54:39.062Z,10.45
2019-01-19T13:57:29.605Z,11.15
2019-01-19T14:00:43.162Z,13.03
2019-01-19T14:03:49.990Z,9.28
2019-01-19T14:07:08.282Z,41.73
2019-01-19T14:09:56.631Z,12.93
2019-01-19T14:13:01.970Z,15.88
2019-01-19T14:15:46.598Z,8.33
2019-01-19T14:19:11.869Z,10.43
2019-01-19T14:33:24.552Z,12.78
2019-01-19T14:36:23.913Z,16.05
2019-01-19T14:39:37.776Z,16.62
2019-01-19T14:42:58.030Z,14.15
2019-01-19T14:45:56.322Z,12.88
2019-01-19T14:48:57.842Z,12.98
2019-01-19T14:52:07.353Z,15.53
2019-01-19T14:55:17.650Z,16.25
2019-01-19T14:58:26.969Z,13.40
2019-01-19T15:01:01.620Z,12.90
2019-01-19T15:03:57.339Z,14.53
2019-01-19T15:06:58.277Z,15.80
2019-01-19T15:10:01.230Z,14.10
2019-01-19T15:13:09.442Z,14.93
2019-01-19T15:16:19.687Z,13.45
2019-01-19T15:19:12.603Z,14.53
2019-01-19T15:22:24.770Z,18.12
2019-01-19T15:25:33.851Z,15.80
2019-01-19T15:28:43.762Z,16.10
2019-01-19T15:32:00.125Z,16.10
2019-01-19T15:35:01.185Z,16.57
2019-01-19T15:37:48.253Z,13.30
2019-01-19T15:40:54.046Z,13.17
2019-01-19T15:44:01.937Z,12.63
2019-01-19T15:47:18.241Z,15.13
2019-01-19T15:50:31.859Z,11.68
2019-01-19T15:53:38.136Z,14.63
2019-01-19T15:56:38.398Z,12.37
2019-01-19T15:59:29.885Z,19.15
2019-01-19T16:02:28.335Z,15.93
2019-01-19T16:05:39.155Z,17.48
2019-01-19T16:09:10.725Z,14.93
2019-01-19T16:12:17.251Z,17.37
2019-01-19T16:15:33.846Z,16.77
2019-01-19T16:18:43.341Z,17.90
2019-01-19T16:21:43.533Z,15.83
2019-01-19T16:24:41.259Z,19.10
2019-01-19T16:28:05.595Z,13.58
2019-01-19T16:31:11.344Z,38.05
2019-01-19T16:34:08.473Z,16.62
2019-01-19T16:37:09.007Z,16.67
2019-01-19T16:40:08.358Z,15.53
2019-01-19T16:43:10.649Z,17.17
2019-01-19T16:45:58.248Z,20.63
2019-01-19T16:49:04.120Z,35.10
2019-01-19T16:52:15.362Z,21.33
2019-01-19T17:25:15.997Z,22.00
2019-01-19T17:28:28.109Z,21.30
2019-01-19T17:31:56.551Z,25.90
2019-01-19T17:34:58.833Z,20.00
2019-01-19T17:37:53.109Z,27.07
2019-01-19T17:41:12.590Z,26.37
2019-01-19T17:44:12.554Z,34.33
2019-01-19T17:47:14.937Z,27.17
2019-01-19T17:50:06.154Z,23.73
2019-01-19T17:53:01.724Z,46.98
2019-01-19T17:56:07.420Z,46.75
2019-01-19T17:59:00.433Z,25.45
2019-01-19T18:02:09.248Z,34.67
2019-01-19T18:05:03.012Z,36.88
2019-01-19T18:08:13.286Z,31.52
2019-01-19T18:11:39.129Z,21.05
2019-01-19T18:14:44.547Z,18.98
2019-01-19T18:17:39.367Z,19.05
2019-01-19T18:21:01.747Z,20.92
2019-01-19T18:23:59.617Z,23.05
2019-01-19T18:26:55.310Z,23.83
2019-01-19T18:30:05.643Z,21.33
2019-01-19T18:33:18.533Z,25.57
2019-01-19T18:36:40.842Z,27.35
2019-01-19T18:39:42.848Z,24.10
2019-01-19T18:43:08.344Z,27.70
2019-01-19T18:46:24.277Z,45.73
2019-01-19T18:49:42.413Z,36.42
2019-01-19T18:52:56.013Z,46.83
2019-01-19T19:11:29.699Z,36.55
2019-01-19T19:19:16.926Z,38.55
2019-01-19T19:22:24.796Z,46.92
2019-01-19T19:25:51.134Z,44.10
2019-01-19T19:28:51.341Z,32.67
2019-01-19T19:32:09.765Z,44.27
2019-01-19T19:35:24.360Z,43.38
2019-01-19T19:38:35.980Z,49.80
2019-01-19T19:42:04.794Z,48.20
2019-01-19T19:45:14.581Z,52.50
2019-01-19T19:48:27.116Z,49.55
2019-01-19T19:51:29.802Z,38.42
2019-01-19T19:53:59.072Z,40.00
2019-01-19T19:56:26.806Z,51.98
2019-01-19T19:58:56.084Z,75.42
2019-01-19T20:01:25.380Z,42.83
2019-01-19T20:03:54.590Z,38.42
2019-01-19T20:06:24.097Z,40.85
2019-01-19T20:08:53.247Z,32.53
2019-01-19T20:11:23.711Z,36.08
2019-01-19T20:13:52.868Z,34.40
2019-01-19T20:16:22.040Z,34.35
2019-01-19T20:18:53.079Z,34.23
2019-01-19T20:21:22.222Z,29.80
2019-01-19T20:23:51.401Z,35.75
2019-01-19T20:26:20.967Z,31.02
2019-01-19T20:28:50.250Z,29.23
2019-01-19T20:31:19.533Z,26.77
2019-01-19T20:33:48.777Z,33.58
2019-01-19T20:36:18.172Z,29.82
2019-01-19T20:38:47.365Z,31.82
2019-01-19T20:41:16.845Z,26.75
2019-01-19T20:43:46.077Z,27.77
2019-01-19T20:46:16.968Z,50.15
2019-01-19T20:48:46.408Z,32.50
2019-01-19T20:51:15.580Z,31.42
2019-01-19T20:53:50.233Z,32.67
2019-01-19T20:56:19.448Z,36.77
2019-01-19T20:58:48.800Z,26.12
2019-01-19T21:01:18.015Z,28.60
2019-01-19T21:03:47.326Z,28.32
2019-01-19T21:06:16.514Z,27.30
2019-01-19T21:08:45.835Z,24.75
2019-01-19T21:11:15.239Z,29.37
2019-01-19T21:13:48.563Z,60.48
2019-01-19T21:16:17.739Z,35.17
2019-01-19T21:18:48.584Z,30.10
2019-01-19T21:21:17.789Z,29.00
2019-01-19T21:23:49.277Z,30.45
2019-01-19T21:26:18.664Z,28.20
2019-01-19T21:28:51.185Z,63.13
2019-01-19T21:31:20.458Z,68.28
2019-01-19T21:33:49.644Z,32.08
2019-01-19T21:36:18.894Z,34.83
2019-01-19T21:38:48.130Z,29.98
2019-01-19T21:41:25.983Z,34.27
2019-01-19T21:43:54.010Z,29.77
2019-01-19T21:46:21.918Z,26.85
2019-01-19T21:48:51.226Z,24.95
2019-01-19T21:51:21.639Z,24.57
2019-01-19T21:53:50.895Z,25.00
2019-01-19T21:56:20.028Z,26.07
2019-01-19T21:58:49.297Z,27.80
2019-01-19T22:01:18.588Z,30.92
2019-01-19T22:03:47.813Z,28.60
2019-01-19T22:06:17.165Z,29.98
2019-01-19T22:08:46.245Z,30.62
2019-01-19T22:11:15.403Z,25.08
2019-01-19T22:13:47.284Z,27.40
2019-01-19T22:18:44.678Z,26.90
2019-01-19T22:21:13.867Z,28.07
2019-01-19T22:23:43.095Z,26.68
2019-01-19T22:26:14.136Z,28.50
2019-01-19T22:28:43.330Z,29.80
2019-01-19T22:31:13.134Z,28.50
2019-01-19T22:33:42.329Z,32.83
2019-01-19T22:36:11.443Z,32.60
2019-01-19T22:38:40.620Z,28.98
2019-01-19T22:41:09.791Z,27.85
2019-01-19T22:43:41.469Z,26.85
2019-01-19T22:46:10.575Z,29.07
2019-01-19T22:48:39.911Z,29.95
2019-01-19T22:51:11.397Z,30.82
2019-01-19T22:53:40.175Z,31.82
2019-01-19T22:56:09.234Z,34.58
2019-01-19T22:58:38.428Z,30.00
2019-01-19T23:01:34.647Z,31.77
2019-01-19T23:04:04.118Z,28.27
2019-01-19T23:06:33.209Z,32.60
2019-01-19T23:09:02.338Z,35.17
2019-01-19T23:11:33.960Z,29.20
2019-01-19T23:14:02.662Z,31.27
2019-01-19T23:16:31.815Z,32.88
2019-01-19T23:19:00.956Z,33.78
2019-01-19T23:21:30.086Z,34.08
2019-01-19T23:23:59.358Z,34.55
2019-01-19T23:26:28.965Z,33.15
2019-01-19T23:28:58.019Z,33.38
2019-01-19T23:31:27.176Z,36.10
2019-01-19T23:33:56.299Z,36.63
2019-01-19T23:36:25.492Z,35.60
2019-01-19T23:38:54.719Z,29.50
2019-01-19T23:41:23.895Z,27.40
2019-01-19T23:43:54.139Z,29.40
2019-01-19T23:46:23.291Z,30.40
2019-01-19T23:48:52.483Z,29.82
2019-01-19T23:51:22.395Z,30.17
2019-01-19T23:53:51.764Z,57.03
2019-01-19T23:56:20.991Z,64.05
2019-01-19T23:58:50.153Z,56.55
